BGSFOINN

Guest
Details From BGSF - Kangerlussuaq
To OINN - Noshahr
Flight Number -
Tags Decoded
Created
Modified
Stats Distance 3,669 nm / 6,794 km
Max Altitude 0 ft / 0 m
Waypoints 2
Social Downloads 1
Likes 0
Share VATSIM

Download

Looking for another format? Having issues loading an existing format? Contact us
Advertisement - Login to hide

Notes

Decoded

Route

BGSF OINN

ID Type Via Altitude Latitude Longitude Leg Dist Tot Dist Heading (true) Name
O BGSF APT - 0 ft / 0 m 67.00561˚ -50.74307˚ - 0 nm - -
O OINN APT - 0 ft / 0 m 36.66655˚ 51.45443˚ 3668 nm 3668 nm 64° / 154° -

Altitude Profile

Advertisement - Login to hide

Weather


0- 5 10 15 20 25 30 35+ Temperature / ° C

Clouds and Precipitation
Forecast for 2018-05-22 00:00 UTC. Updated 2 hours ago

Ground ~20,000 ft ~40,000 ft Winds

BGSF

Details ICAO BGSF (SFJ)
Name Kangerlussuaq
Region Greenland
Timezone America/Godthab (UTC-2.0)
Stats Elevation 165 ft / 50 m (AMSL)
Location 67.011605° -50.714721°
Runways 2
Magnetic Variation 28.860° W

METAR

BGSF 220050Z AUTO 07010KT 9999NDV FEW140/// SCT170/// 04/M07 Q0999

Decode

TAF

TAF AMD BGSF 211911Z 2118/2224 08008KT 9999 FEW040 SCT200 TEMPO 2203/2213 12015G28KT

Decode

Departure Runways

ID Width Length Bearing (true) Bearing (mag) Surface Threshold Offset Overrun Length
09 197 ft / 60 m 9,169 ft / 2,795 m 61.57° 90.43° Asphalt 0 ft / 0 m 509 ft / 155 m
10 197 ft / 60 m 9,187 ft / 2,800 m 61.55° 90.41° Asphalt 0 ft / 0 m 0 ft / 0 m
27 197 ft / 60 m 9,169 ft / 2,795 m 241.63° 270.49° Asphalt 0 ft / 0 m 171 ft / 52 m
28 197 ft / 60 m 9,187 ft / 2,800 m 241.60° 270.46° Asphalt 0 ft / 0 m 0 ft / 0 m

OINN

Details ICAO OINN (NSH)
Name NOSHAHR
Region Iran
Timezone Asia/Tehran (UTC+4.5)
Stats Elevation -61 ft / -19 m (AMSL)
Location 36.663837° 51.464417°
Runways 1
Magnetic Variation 5.020° E

METAR

OINN 220100Z 18004KT 9999 BKN030 20/15 Q1013

Decode

TAF

Not found

Destination Runways

ID Width Length Bearing (true) Bearing (mag) Surface Threshold Offset Overrun Length
10 115 ft / 35 m 6,173 ft / 1,882 m 108.72° 103.70° Asphalt 0 ft / 0 m 492 ft / 150 m
28 115 ft / 35 m 6,173 ft / 1,882 m 288.73° 283.71° Asphalt 492 ft / 150 m 0 ft / 0 m